sensor_id;sensor_type;location;lat;lon;timestamp;temperature;humidity
75161;DHT22;67232;50.096;8.716;2023-05-07T00:00:47;19.30;69.30
75161;DHT22;67232;50.096;8.716;2023-05-07T00:03:13;19.30;69.60
75161;DHT22;67232;50.096;8.716;2023-05-07T00:05:39;19.20;70.10
75161;DHT22;67232;50.096;8.716;2023-05-07T00:08:04;19.40;70.00
75161;DHT22;67232;50.096;8.716;2023-05-07T00:10:30;19.30;69.60
75161;DHT22;67232;50.096;8.716;2023-05-07T00:12:55;19.30;70.00
75161;DHT22;67232;50.096;8.716;2023-05-07T00:15:21;19.40;70.00
75161;DHT22;67232;50.096;8.716;2023-05-07T00:17:47;19.10;70.20
75161;DHT22;67232;50.096;8.716;2023-05-07T00:20:12;19.20;70.20
75161;DHT22;67232;50.096;8.716;2023-05-07T00:22:38;19.40;69.60
75161;DHT22;67232;50.096;8.716;2023-05-07T00:25:04;19.40;69.30
75161;DHT22;67232;50.096;8.716;2023-05-07T00:27:29;19.30;69.40
75161;DHT22;67232;50.096;8.716;2023-05-07T00:29:57;19.30;69.30
75161;DHT22;67232;50.096;8.716;2023-05-07T00:32:22;19.10;70.40
75161;DHT22;67232;50.096;8.716;2023-05-07T00:34:50;19.20;69.50
75161;DHT22;67232;50.096;8.716;2023-05-07T00:37:16;18.90;70.70
75161;DHT22;67232;50.096;8.716;2023-05-07T00:39:45;18.90;71.00
75161;DHT22;67232;50.096;8.716;2023-05-07T00:42:10;19.10;70.60
75161;DHT22;67232;50.096;8.716;2023-05-07T00:44:40;19.20;70.00
75161;DHT22;67232;50.096;8.716;2023-05-07T00:47:05;19.30;70.10
75161;DHT22;67232;50.096;8.716;2023-05-07T00:49:38;19.20;70.30
75161;DHT22;67232;50.096;8.716;2023-05-07T00:52:06;19.10;70.30
75161;DHT22;67232;50.096;8.716;2023-05-07T00:54:35;19.30;70.30
75161;DHT22;67232;50.096;8.716;2023-05-07T00:57:02;19.20;70.60
75161;DHT22;67232;50.096;8.716;2023-05-07T00:59:29;19.40;69.90
75161;DHT22;67232;50.096;8.716;2023-05-07T01:01:58;19.40;69.50
75161;DHT22;67232;50.096;8.716;2023-05-07T01:04:26;19.30;70.20
75161;DHT22;67232;50.096;8.716;2023-05-07T01:06:54;19.20;70.30
75161;DHT22;67232;50.096;8.716;2023-05-07T01:09:22;19.30;70.10
75161;DHT22;67232;50.096;8.716;2023-05-07T01:11:50;19.20;70.60
75161;DHT22;67232;50.096;8.716;2023-05-07T01:14:17;19.20;70.80
75161;DHT22;67232;50.096;8.716;2023-05-07T01:16:43;19.20;70.80
75161;DHT22;67232;50.096;8.716;2023-05-07T01:19:10;19.10;71.10
75161;DHT22;67232;50.096;8.716;2023-05-07T01:21:37;19.00;71.50
75161;DHT22;67232;50.096;8.716;2023-05-07T01:24:06;19.20;71.50
75161;DHT22;67232;50.096;8.716;2023-05-07T01:26:32;19.30;70.70
75161;DHT22;67232;50.096;8.716;2023-05-07T01:28:58;19.30;70.40
75161;DHT22;67232;50.096;8.716;2023-05-07T01:31:24;19.20;71.20
75161;DHT22;67232;50.096;8.716;2023-05-07T01:33:53;19.10;71.30
75161;DHT22;67232;50.096;8.716;2023-05-07T01:36:22;19.10;71.30
75161;DHT22;67232;50.096;8.716;2023-05-07T01:38:51;19.20;70.70
75161;DHT22;67232;50.096;8.716;2023-05-07T01:41:18;19.00;71.30
75161;DHT22;67232;50.096;8.716;2023-05-07T01:43:44;19.00;71.80
75161;DHT22;67232;50.096;8.716;2023-05-07T01:46:12;19.10;71.70
75161;DHT22;67232;50.096;8.716;2023-05-07T01:48:38;19.10;71.60
75161;DHT22;67232;50.096;8.716;2023-05-07T01:51:04;19.10;71.80
75161;DHT22;67232;50.096;8.716;2023-05-07T01:53:38;19.10;71.70
75161;DHT22;67232;50.096;8.716;2023-05-07T01:56:04;19.10;71.30
75161;DHT22;67232;50.096;8.716;2023-05-07T01:58:29;18.90;72.10
75161;DHT22;67232;50.096;8.716;2023-05-07T02:00:57;18.80;72.30
75161;DHT22;67232;50.096;8.716;2023-05-07T02:03:23;18.70;72.50
75161;DHT22;67232;50.096;8.716;2023-05-07T02:05:48;18.80;72.40
75161;DHT22;67232;50.096;8.716;2023-05-07T02:08:14;18.80;72.50
75161;DHT22;67232;50.096;8.716;2023-05-07T02:10:39;18.90;71.90
75161;DHT22;67232;50.096;8.716;2023-05-07T02:13:05;18.70;72.50
75161;DHT22;67232;50.096;8.716;2023-05-07T02:15:30;18.70;72.70
75161;DHT22;67232;50.096;8.716;2023-05-07T02:18:03;18.60;73.00
75161;DHT22;67232;50.096;8.716;2023-05-07T02:20:29;18.80;72.90
75161;DHT22;67232;50.096;8.716;2023-05-07T02:22:57;18.80;72.80
75161;DHT22;67232;50.096;8.716;2023-05-07T02:25:25;18.70;72.70
75161;DHT22;67232;50.096;8.716;2023-05-07T02:27:54;18.70;73.00
75161;DHT22;67232;50.096;8.716;2023-05-07T02:30:19;18.80;72.70
75161;DHT22;67232;50.096;8.716;2023-05-07T02:32:47;18.60;73.10
75161;DHT22;67232;50.096;8.716;2023-05-07T02:35:13;18.60;73.00
75161;DHT22;67232;50.096;8.716;2023-05-07T02:37:38;18.70;72.90
75161;DHT22;67232;50.096;8.716;2023-05-07T02:40:04;18.60;73.00
75161;DHT22;67232;50.096;8.716;2023-05-07T02:42:30;18.50;73.30
75161;DHT22;67232;50.096;8.716;2023-05-07T02:44:56;18.50;73.40
75161;DHT22;67232;50.096;8.716;2023-05-07T02:47:21;18.60;73.20
75161;DHT22;67232;50.096;8.716;2023-05-07T02:49:47;18.70;73.10
75161;DHT22;67232;50.096;8.716;2023-05-07T02:52:13;18.70;72.90
75161;DHT22;67232;50.096;8.716;2023-05-07T02:54:38;18.60;73.20
75161;DHT22;67232;50.096;8.716;2023-05-07T02:57:04;18.50;73.10
75161;DHT22;67232;50.096;8.716;2023-05-07T02:59:29;18.50;73.00
75161;DHT22;67232;50.096;8.716;2023-05-07T03:01:57;18.60;73.00
75161;DHT22;67232;50.096;8.716;2023-05-07T03:04:23;18.60;72.80
75161;DHT22;67232;50.096;8.716;2023-05-07T03:06:48;18.50;72.90
75161;DHT22;67232;50.096;8.716;2023-05-07T03:09:16;18.50;73.10
75161;DHT22;67232;50.096;8.716;2023-05-07T03:11:42;18.30;73.40
75161;DHT22;67232;50.096;8.716;2023-05-07T03:14:07;18.50;73.10
75161;DHT22;67232;50.096;8.716;2023-05-07T03:16:33;18.50;73.10
75161;DHT22;67232;50.096;8.716;2023-05-07T03:18:58;18.50;73.10
75161;DHT22;67232;50.096;8.716;2023-05-07T03:21:26;18.40;73.10
75161;DHT22;67232;50.096;8.716;2023-05-07T03:23:52;18.30;73.10
75161;DHT22;67232;50.096;8.716;2023-05-07T03:26:21;18.50;73.00
75161;DHT22;67232;50.096;8.716;2023-05-07T03:28:48;18.30;73.30
75161;DHT22;67232;50.096;8.716;2023-05-07T03:31:14;18.10;74.20
75161;DHT22;67232;50.096;8.716;2023-05-07T03:33:49;18.20;73.70
75161;DHT22;67232;50.096;8.716;2023-05-07T03:36:17;18.20;73.80
75161;DHT22;67232;50.096;8.716;2023-05-07T03:38:45;18.20;74.10
75161;DHT22;67232;50.096;8.716;2023-05-07T03:41:11;18.00;75.10
75161;DHT22;67232;50.096;8.716;2023-05-07T03:43:39;18.00;75.30
75161;DHT22;67232;50.096;8.716;2023-05-07T03:46:07;17.90;75.60
75161;DHT22;67232;50.096;8.716;2023-05-07T03:48:33;18.20;73.70
75161;DHT22;67232;50.096;8.716;2023-05-07T03:50:58;18.30;73.40
75161;DHT22;67232;50.096;8.716;2023-05-07T03:53:28;18.30;73.20
75161;DHT22;67232;50.096;8.716;2023-05-07T03:55:54;18.30;73.20
75161;DHT22;67232;50.096;8.716;2023-05-07T03:58:20;18.50;72.70
75161;DHT22;67232;50.096;8.716;2023-05-07T04:00:45;18.40;72.50
75161;DHT22;67232;50.096;8.716;2023-05-07T04:03:11;18.40;72.50
75161;DHT22;67232;50.096;8.716;2023-05-07T04:05:39;18.40;72.20
75161;DHT22;67232;50.096;8.716;2023-05-07T04:08:04;18.30;72.90
75161;DHT22;67232;50.096;8.716;2023-05-07T04:10:33;18.40;72.50
75161;DHT22;67232;50.096;8.716;2023-05-07T04:12:58;18.30;73.00
75161;DHT22;67232;50.096;8.716;2023-05-07T04:15:24;18.40;72.90
75161;DHT22;67232;50.096;8.716;2023-05-07T04:17:49;18.30;73.00
75161;DHT22;67232;50.096;8.716;2023-05-07T04:20:20;18.30;73.00
75161;DHT22;67232;50.096;8.716;2023-05-07T04:22:46;18.40;73.00
75161;DHT22;67232;50.096;8.716;2023-05-07T04:25:11;18.40;73.30
75161;DHT22;67232;50.096;8.716;2023-05-07T04:27:37;18.30;73.30
75161;DHT22;67232;50.096;8.716;2023-05-07T04:30:03;18.40;73.10
75161;DHT22;67232;50.096;8.716;2023-05-07T04:32:29;18.40;72.90
75161;DHT22;67232;50.096;8.716;2023-05-07T04:34:56;18.50;72.80
75161;DHT22;67232;50.096;8.716;2023-05-07T04:37:25;18.50;73.00
75161;DHT22;67232;50.096;8.716;2023-05-07T04:39:54;18.60;73.00
75161;DHT22;67232;50.096;8.716;2023-05-07T04:42:19;18.60;72.80
75161;DHT22;67232;50.096;8.716;2023-05-07T04:44:45;18.60;72.90
75161;DHT22;67232;50.096;8.716;2023-05-07T04:47:11;18.40;73.30
75161;DHT22;67232;50.096;8.716;2023-05-07T04:49:39;18.10;73.80
75161;DHT22;67232;50.096;8.716;2023-05-07T04:52:04;18.30;73.40
75161;DHT22;67232;50.096;8.716;2023-05-07T04:54:30;18.20;73.70
75161;DHT22;67232;50.096;8.716;2023-05-07T04:56:55;18.20;73.60
75161;DHT22;67232;50.096;8.716;2023-05-07T04:59:23;18.40;73.30
75161;DHT22;67232;50.096;8.716;2023-05-07T05:01:49;18.40;73.10
75161;DHT22;67232;50.096;8.716;2023-05-07T05:04:17;18.40;72.70
75161;DHT22;67232;50.096;8.716;2023-05-07T05:06:45;18.40;72.70
75161;DHT22;67232;50.096;8.716;2023-05-07T05:09:10;18.40;72.30
75161;DHT22;67232;50.096;8.716;2023-05-07T05:11:36;18.40;72.50
75161;DHT22;67232;50.096;8.716;2023-05-07T05:14:04;18.50;72.40
75161;DHT22;67232;50.096;8.716;2023-05-07T05:16:29;18.50;72.20
75161;DHT22;67232;50.096;8.716;2023-05-07T05:19:01;18.60;71.80
75161;DHT22;67232;50.096;8.716;2023-05-07T05:21:26;18.60;71.80
75161;DHT22;67232;50.096;8.716;2023-05-07T05:23:57;18.80;71.20
75161;DHT22;67232;50.096;8.716;2023-05-07T05:26:27;18.90;71.30
75161;DHT22;67232;50.096;8.716;2023-05-07T05:28:55;18.50;72.20
75161;DHT22;67232;50.096;8.716;2023-05-07T05:31:20;18.70;72.20
75161;DHT22;67232;50.096;8.716;2023-05-07T05:33:46;18.90;71.50
75161;DHT22;67232;50.096;8.716;2023-05-07T05:36:12;18.90;70.70
75161;DHT22;67232;50.096;8.716;2023-05-07T05:38:39;18.90;71.30
75161;DHT22;67232;50.096;8.716;2023-05-07T05:41:05;19.00;70.80
75161;DHT22;67232;50.096;8.716;2023-05-07T05:43:33;18.90;71.10
75161;DHT22;67232;50.096;8.716;2023-05-07T05:46:01;18.90;70.30
75161;DHT22;67232;50.096;8.716;2023-05-07T05:48:28;19.00;71.00
75161;DHT22;67232;50.096;8.716;2023-05-07T05:50:56;19.10;70.70
75161;DHT22;67232;50.096;8.716;2023-05-07T05:53:24;19.20;69.40
75161;DHT22;67232;50.096;8.716;2023-05-07T05:55:52;19.30;70.30
75161;DHT22;67232;50.096;8.716;2023-05-07T05:58:20;19.20;69.50
75161;DHT22;67232;50.096;8.716;2023-05-07T06:00:48;19.20;68.90
75161;DHT22;67232;50.096;8.716;2023-05-07T06:03:17;19.10;69.80
75161;DHT22;67232;50.096;8.716;2023-05-07T06:05:45;19.30;69.20
75161;DHT22;67232;50.096;8.716;2023-05-07T06:08:10;19.30;69.20
75161;DHT22;67232;50.096;8.716;2023-05-07T06:10:36;19.40;69.80
75161;DHT22;67232;50.096;8.716;2023-05-07T06:13:02;19.50;68.30
75161;DHT22;67232;50.096;8.716;2023-05-07T06:15:27;19.20;68.60
75161;DHT22;67232;50.096;8.716;2023-05-07T06:17:53;19.40;69.30
75161;DHT22;67232;50.096;8.716;2023-05-07T06:20:21;19.50;69.30
75161;DHT22;67232;50.096;8.716;2023-05-07T06:22:46;19.70;68.60
75161;DHT22;67232;50.096;8.716;2023-05-07T06:25:12;19.60;67.90
75161;DHT22;67232;50.096;8.716;2023-05-07T06:27:37;19.60;68.20
75161;DHT22;67232;50.096;8.716;2023-05-07T06:30:06;19.60;68.90
75161;DHT22;67232;50.096;8.716;2023-05-07T06:32:31;19.60;69.10
75161;DHT22;67232;50.096;8.716;2023-05-07T06:34:57;19.60;68.30
75161;DHT22;67232;50.096;8.716;2023-05-07T06:37:25;19.70;68.10
75161;DHT22;67232;50.096;8.716;2023-05-07T06:39:50;19.80;67.70
75161;DHT22;67232;50.096;8.716;2023-05-07T06:42:16;19.90;67.00
75161;DHT22;67232;50.096;8.716;2023-05-07T06:44:41;19.70;67.20
75161;DHT22;67232;50.096;8.716;2023-05-07T06:47:09;19.80;66.90
75161;DHT22;67232;50.096;8.716;2023-05-07T06:49:35;19.50;67.50
75161;DHT22;67232;50.096;8.716;2023-05-07T06:52:03;19.70;67.50
75161;DHT22;67232;50.096;8.716;2023-05-07T06:54:29;19.90;67.70
75161;DHT22;67232;50.096;8.716;2023-05-07T06:56:58;19.90;67.70
75161;DHT22;67232;50.096;8.716;2023-05-07T06:59:23;19.90;67.40
75161;DHT22;67232;50.096;8.716;2023-05-07T07:01:52;20.20;67.80
75161;DHT22;67232;50.096;8.716;2023-05-07T07:04:19;20.20;67.10
75161;DHT22;67232;50.096;8.716;2023-05-07T07:06:47;20.00;67.60
75161;DHT22;67232;50.096;8.716;2023-05-07T07:09:13;20.00;68.30
75161;DHT22;67232;50.096;8.716;2023-05-07T07:11:40;20.10;68.30
75161;DHT22;67232;50.096;8.716;2023-05-07T07:14:08;20.20;67.90
75161;DHT22;67232;50.096;8.716;2023-05-07T07:16:36;20.30;67.60
75161;DHT22;67232;50.096;8.716;2023-05-07T07:19:06;20.50;66.60
75161;DHT22;67232;50.096;8.716;2023-05-07T07:21:34;20.50;66.50
75161;DHT22;67232;50.096;8.716;2023-05-07T07:24:00;20.70;66.20
75161;DHT22;67232;50.096;8.716;2023-05-07T07:26:30;20.70;65.90
75161;DHT22;67232;50.096;8.716;2023-05-07T07:28:56;20.70;65.70
75161;DHT22;67232;50.096;8.716;2023-05-07T07:31:22;20.70;65.70
75161;DHT22;67232;50.096;8.716;2023-05-07T07:33:50;20.70;64.90
75161;DHT22;67232;50.096;8.716;2023-05-07T07:36:15;20.70;64.30
75161;DHT22;67232;50.096;8.716;2023-05-07T07:38:41;20.80;64.00
75161;DHT22;67232;50.096;8.716;2023-05-07T07:41:08;20.90;63.10
75161;DHT22;67232;50.096;8.716;2023-05-07T07:43:36;21.10;62.30
75161;DHT22;67232;50.096;8.716;2023-05-07T07:46:04;21.00;62.50
75161;DHT22;67232;50.096;8.716;2023-05-07T07:48:32;21.20;62.10
75161;DHT22;67232;50.096;8.716;2023-05-07T07:51:00;21.50;61.20
75161;DHT22;67232;50.096;8.716;2023-05-07T07:53:26;21.50;61.50
75161;DHT22;67232;50.096;8.716;2023-05-07T07:55:51;21.50;62.10
75161;DHT22;67232;50.096;8.716;2023-05-07T07:58:17;21.40;61.70
75161;DHT22;67232;50.096;8.716;2023-05-07T08:00:43;21.40;61.20
75161;DHT22;67232;50.096;8.716;2023-05-07T08:03:11;21.40;61.70
75161;DHT22;67232;50.096;8.716;2023-05-07T08:05:37;21.40;61.50
75161;DHT22;67232;50.096;8.716;2023-05-07T08:08:08;21.40;61.80
75161;DHT22;67232;50.096;8.716;2023-05-07T08:10:34;21.50;62.00
75161;DHT22;67232;50.096;8.716;2023-05-07T08:13:00;21.40;61.90
75161;DHT22;67232;50.096;8.716;2023-05-07T08:15:26;21.40;61.80
75161;DHT22;67232;50.096;8.716;2023-05-07T08:17:51;21.50;61.30
75161;DHT22;67232;50.096;8.716;2023-05-07T08:20:21;21.40;61.00
75161;DHT22;67232;50.096;8.716;2023-05-07T08:22:47;21.50;61.30
75161;DHT22;67232;50.096;8.716;2023-05-07T08:25:13;21.50;61.10
75161;DHT22;67232;50.096;8.716;2023-05-07T08:27:38;21.50;61.20
75161;DHT22;67232;50.096;8.716;2023-05-07T08:30:07;21.50;61.20
75161;DHT22;67232;50.096;8.716;2023-05-07T08:32:35;21.80;60.90
75161;DHT22;67232;50.096;8.716;2023-05-07T08:35:00;21.60;61.10
75161;DHT22;67232;50.096;8.716;2023-05-07T08:37:26;21.90;60.80
75161;DHT22;67232;50.096;8.716;2023-05-07T08:39:56;21.90;60.20
75161;DHT22;67232;50.096;8.716;2023-05-07T08:42:23;22.00;60.40
75161;DHT22;67232;50.096;8.716;2023-05-07T08:44:51;21.80;60.60
75161;DHT22;67232;50.096;8.716;2023-05-07T08:47:20;21.50;61.40
75161;DHT22;67232;50.096;8.716;2023-05-07T08:49:50;21.60;60.90
75161;DHT22;67232;50.096;8.716;2023-05-07T08:52:16;21.60;60.60
75161;DHT22;67232;50.096;8.716;2023-05-07T08:54:42;21.50;61.60
75161;DHT22;67232;50.096;8.716;2023-05-07T08:57:11;21.20;61.60
75161;DHT22;67232;50.096;8.716;2023-05-07T08:59:36;21.50;62.40
75161;DHT22;67232;50.096;8.716;2023-05-07T09:02:09;21.70;61.30
75161;DHT22;67232;50.096;8.716;2023-05-07T09:04:35;21.60;61.40
75161;DHT22;67232;50.096;8.716;2023-05-07T09:07:00;21.90;61.40
75161;DHT22;67232;50.096;8.716;2023-05-07T09:09:32;22.10;60.20
75161;DHT22;67232;50.096;8.716;2023-05-07T09:12:04;22.20;60.50
75161;DHT22;67232;50.096;8.716;2023-05-07T09:14:32;22.40;60.20
75161;DHT22;67232;50.096;8.716;2023-05-07T09:16:58;22.50;59.90
75161;DHT22;67232;50.096;8.716;2023-05-07T09:19:27;22.70;59.70
75161;DHT22;67232;50.096;8.716;2023-05-07T09:22:04;22.80;60.00
75161;DHT22;67232;50.096;8.716;2023-05-07T09:24:32;23.00;59.00
75161;DHT22;67232;50.096;8.716;2023-05-07T09:27:04;23.30;59.20
75161;DHT22;67232;50.096;8.716;2023-05-07T09:29:30;23.70;56.90
75161;DHT22;67232;50.096;8.716;2023-05-07T09:32:03;24.00;56.40
75161;DHT22;67232;50.096;8.716;2023-05-07T09:34:33;23.80;57.00
75161;DHT22;67232;50.096;8.716;2023-05-07T09:37:05;24.10;57.20
75161;DHT22;67232;50.096;8.716;2023-05-07T09:39:42;23.90;56.20
75161;DHT22;67232;50.096;8.716;2023-05-07T09:42:07;24.00;56.40
75161;DHT22;67232;50.096;8.716;2023-05-07T09:44:34;23.80;56.60
75161;DHT22;67232;50.096;8.716;2023-05-07T09:47:00;23.90;56.60
75161;DHT22;67232;50.096;8.716;2023-05-07T09:49:30;24.10;56.00
75161;DHT22;67232;50.096;8.716;2023-05-07T09:52:00;24.30;56.30
75161;DHT22;67232;50.096;8.716;2023-05-07T09:54:30;24.30;56.00
75161;DHT22;67232;50.096;8.716;2023-05-07T09:56:59;24.60;53.90
75161;DHT22;67232;50.096;8.716;2023-05-07T09:59:28;25.00;52.90
75161;DHT22;67232;50.096;8.716;2023-05-07T10:01:57;25.10;53.70
75161;DHT22;67232;50.096;8.716;2023-05-07T10:04:24;25.20;52.80
75161;DHT22;67232;50.096;8.716;2023-05-07T10:06:52;25.50;52.60
75161;DHT22;67232;50.096;8.716;2023-05-07T10:09:19;25.70;53.40
75161;DHT22;67232;50.096;8.716;2023-05-07T10:11:49;26.10;51.70
75161;DHT22;67232;50.096;8.716;2023-05-07T10:14:15;26.50;51.10
75161;DHT22;67232;50.096;8.716;2023-05-07T10:16:46;26.40;50.70
75161;DHT22;67232;50.096;8.716;2023-05-07T10:19:15;26.40;51.30
75161;DHT22;67232;50.096;8.716;2023-05-07T10:21:51;27.30;49.50
75161;DHT22;67232;50.096;8.716;2023-05-07T10:24:29;27.50;48.50
75161;DHT22;67232;50.096;8.716;2023-05-07T10:26:55;27.80;48.50
75161;DHT22;67232;50.096;8.716;2023-05-07T10:34:40;27.70;46.90
75161;DHT22;67232;50.096;8.716;2023-05-07T10:37:13;27.60;48.10
75161;DHT22;67232;50.096;8.716;2023-05-07T10:39:39;27.40;48.00
75161;DHT22;67232;50.096;8.716;2023-05-07T10:42:12;27.70;47.70
75161;DHT22;67232;50.096;8.716;2023-05-07T10:44:38;28.30;46.80
75161;DHT22;67232;50.096;8.716;2023-05-07T10:47:08;28.90;44.60
75161;DHT22;67232;50.096;8.716;2023-05-07T10:52:23;29.00;46.00
75161;DHT22;67232;50.096;8.716;2023-05-07T10:57:50;29.30;44.10
75161;DHT22;67232;50.096;8.716;2023-05-07T11:05:29;28.90;45.00
75161;DHT22;67232;50.096;8.716;2023-05-07T11:08:01;28.80;45.80
75161;DHT22;67232;50.096;8.716;2023-05-07T11:10:48;28.30;45.00
75161;DHT22;67232;50.096;8.716;2023-05-07T11:13:14;27.40;45.60
75161;DHT22;67232;50.096;8.716;2023-05-07T11:15:47;27.40;46.30
75161;DHT22;67232;50.096;8.716;2023-05-07T11:18:17;27.00;46.80
75161;DHT22;67232;50.096;8.716;2023-05-07T11:20:49;26.30;47.90
75161;DHT22;67232;50.096;8.716;2023-05-07T11:26:09;26.50;47.70
75161;DHT22;67232;50.096;8.716;2023-05-07T11:28:40;26.70;47.60
75161;DHT22;67232;50.096;8.716;2023-05-07T11:31:09;27.00;47.30
75161;DHT22;67232;50.096;8.716;2023-05-07T11:33:37;27.10;46.30
75161;DHT22;67232;50.096;8.716;2023-05-07T11:36:04;27.40;45.70
75161;DHT22;67232;50.096;8.716;2023-05-07T11:38:36;27.40;46.60
75161;DHT22;67232;50.096;8.716;2023-05-07T11:41:05;27.20;46.70
75161;DHT22;67232;50.096;8.716;2023-05-07T11:43:32;27.70;45.70
75161;DHT22;67232;50.096;8.716;2023-05-07T11:46:18;27.40;45.30
75161;DHT22;67232;50.096;8.716;2023-05-07T11:48:46;26.90;46.10
75161;DHT22;67232;50.096;8.716;2023-05-07T11:51:12;27.30;46.50
75161;DHT22;67232;50.096;8.716;2023-05-07T11:53:44;27.30;46.10
75161;DHT22;67232;50.096;8.716;2023-05-07T11:56:15;27.20;47.10
75161;DHT22;67232;50.096;8.716;2023-05-07T11:58:44;27.30;46.10
75161;DHT22;67232;50.096;8.716;2023-05-07T12:01:13;27.00;46.00
75161;DHT22;67232;50.096;8.716;2023-05-07T12:03:45;27.00;45.60
75161;DHT22;67232;50.096;8.716;2023-05-07T12:06:16;27.00;45.90
75161;DHT22;67232;50.096;8.716;2023-05-07T12:08:43;27.30;44.30
75161;DHT22;67232;50.096;8.716;2023-05-07T12:11:18;27.60;44.50
75161;DHT22;67232;50.096;8.716;2023-05-07T12:13:46;27.70;44.90
75161;DHT22;67232;50.096;8.716;2023-05-07T12:16:17;27.40;45.60
75161;DHT22;67232;50.096;8.716;2023-05-07T12:18:46;27.50;46.30
75161;DHT22;67232;50.096;8.716;2023-05-07T12:21:14;27.70;44.60
75161;DHT22;67232;50.096;8.716;2023-05-07T12:23:46;27.90;44.10
75161;DHT22;67232;50.096;8.716;2023-05-07T12:26:14;27.70;44.00
75161;DHT22;67232;50.096;8.716;2023-05-07T12:28:40;27.80;45.40
75161;DHT22;67232;50.096;8.716;2023-05-07T12:31:08;28.10;44.00
75161;DHT22;67232;50.096;8.716;2023-05-07T12:33:36;28.00;43.80
75161;DHT22;67232;50.096;8.716;2023-05-07T12:36:08;27.90;43.70
75161;DHT22;67232;50.096;8.716;2023-05-07T12:38:40;27.50;43.60
75161;DHT22;67232;50.096;8.716;2023-05-07T12:41:21;27.40;44.80
75161;DHT22;67232;50.096;8.716;2023-05-07T12:43:56;27.60;43.90
75161;DHT22;67232;50.096;8.716;2023-05-07T12:46:22;27.50;44.40
75161;DHT22;67232;50.096;8.716;2023-05-07T12:48:50;27.10;44.40
75161;DHT22;67232;50.096;8.716;2023-05-07T12:51:15;27.30;44.70
75161;DHT22;67232;50.096;8.716;2023-05-07T12:53:44;26.90;44.80
75161;DHT22;67232;50.096;8.716;2023-05-07T12:56:15;26.80;45.70
75161;DHT22;67232;50.096;8.716;2023-05-07T12:58:43;26.90;44.70
75161;DHT22;67232;50.096;8.716;2023-05-07T13:01:09;26.80;45.20
75161;DHT22;67232;50.096;8.716;2023-05-07T13:03:40;26.70;45.50
75161;DHT22;67232;50.096;8.716;2023-05-07T13:06:08;26.90;45.70
75161;DHT22;67232;50.096;8.716;2023-05-07T13:08:43;26.80;45.00
75161;DHT22;67232;50.096;8.716;2023-05-07T13:11:14;26.60;44.60
75161;DHT22;67232;50.096;8.716;2023-05-07T13:13:41;26.70;44.60
75161;DHT22;67232;50.096;8.716;2023-05-07T13:16:08;26.60;44.00
75161;DHT22;67232;50.096;8.716;2023-05-07T13:18:35;26.40;44.80
75161;DHT22;67232;50.096;8.716;2023-05-07T13:21:03;26.40;45.30
75161;DHT22;67232;50.096;8.716;2023-05-07T13:23:31;26.20;45.60
75161;DHT22;67232;50.096;8.716;2023-05-07T13:25:56;26.20;45.70
75161;DHT22;67232;50.096;8.716;2023-05-07T13:28:23;26.40;45.00
75161;DHT22;67232;50.096;8.716;2023-05-07T13:30:49;26.40;44.20
75161;DHT22;67232;50.096;8.716;2023-05-07T13:33:15;26.60;44.80
75161;DHT22;67232;50.096;8.716;2023-05-07T13:35:41;26.70;43.60
75161;DHT22;67232;50.096;8.716;2023-05-07T13:38:07;26.40;43.50
75161;DHT22;67232;50.096;8.716;2023-05-07T13:40:33;26.40;45.00
75161;DHT22;67232;50.096;8.716;2023-05-07T13:42:59;26.30;47.20
75161;DHT22;67232;50.096;8.716;2023-05-07T13:45:30;26.10;48.20
75161;DHT22;67232;50.096;8.716;2023-05-07T13:47:59;25.80;48.50
75161;DHT22;67232;50.096;8.716;2023-05-07T13:50:25;26.10;48.30
75161;DHT22;67232;50.096;8.716;2023-05-07T13:52:52;26.30;47.50
75161;DHT22;67232;50.096;8.716;2023-05-07T13:55:23;26.00;48.40
75161;DHT22;67232;50.096;8.716;2023-05-07T13:57:58;25.60;49.00
75161;DHT22;67232;50.096;8.716;2023-05-07T14:00:27;25.70;48.40
75161;DHT22;67232;50.096;8.716;2023-05-07T14:02:57;25.60;49.00
75161;DHT22;67232;50.096;8.716;2023-05-07T14:05:25;25.70;49.80
75161;DHT22;67232;50.096;8.716;2023-05-07T14:07:51;25.50;49.20
75161;DHT22;67232;50.096;8.716;2023-05-07T14:10:18;25.80;48.30
75161;DHT22;67232;50.096;8.716;2023-05-07T14:12:45;25.80;48.30
75161;DHT22;67232;50.096;8.716;2023-05-07T14:15:13;25.80;48.20
75161;DHT22;67232;50.096;8.716;2023-05-07T14:17:39;25.90;47.60
75161;DHT22;67232;50.096;8.716;2023-05-07T14:20:05;25.80;47.60
75161;DHT22;67232;50.096;8.716;2023-05-07T14:22:36;25.90;47.80
75161;DHT22;67232;50.096;8.716;2023-05-07T14:25:01;25.70;48.10
75161;DHT22;67232;50.096;8.716;2023-05-07T14:27:27;25.70;48.00
75161;DHT22;67232;50.096;8.716;2023-05-07T14:29:53;25.60;47.90
75161;DHT22;67232;50.096;8.716;2023-05-07T14:32:18;25.40;48.40
75161;DHT22;67232;50.096;8.716;2023-05-07T14:34:45;25.40;49.00
75161;DHT22;67232;50.096;8.716;2023-05-07T14:37:13;25.40;49.40
75161;DHT22;67232;50.096;8.716;2023-05-07T14:39:41;25.50;49.50
75161;DHT22;67232;50.096;8.716;2023-05-07T14:42:09;25.50;49.40
75161;DHT22;67232;50.096;8.716;2023-05-07T14:44:36;25.30;49.00
75161;DHT22;67232;50.096;8.716;2023-05-07T14:47:05;25.20;49.30
75161;DHT22;67232;50.096;8.716;2023-05-07T14:49:34;25.10;50.30
75161;DHT22;67232;50.096;8.716;2023-05-07T14:51:59;25.20;49.50
75161;DHT22;67232;50.096;8.716;2023-05-07T14:54:28;25.20;49.40
75161;DHT22;67232;50.096;8.716;2023-05-07T14:56:54;25.30;49.10
75161;DHT22;67232;50.096;8.716;2023-05-07T14:59:23;25.20;49.80
75161;DHT22;67232;50.096;8.716;2023-05-07T15:01:50;25.30;48.90
75161;DHT22;67232;50.096;8.716;2023-05-07T15:04:16;25.30;48.20
75161;DHT22;67232;50.096;8.716;2023-05-07T15:06:44;25.20;48.00
75161;DHT22;67232;50.096;8.716;2023-05-07T15:09:12;25.30;47.90
75161;DHT22;67232;50.096;8.716;2023-05-07T15:11:38;25.30;47.70
75161;DHT22;67232;50.096;8.716;2023-05-07T15:14:06;25.30;47.60
75161;DHT22;67232;50.096;8.716;2023-05-07T15:16:34;25.10;48.10
75161;DHT22;67232;50.096;8.716;2023-05-07T15:19:00;25.10;48.50
75161;DHT22;67232;50.096;8.716;2023-05-07T15:21:26;24.90;48.30
75161;DHT22;67232;50.096;8.716;2023-05-07T15:23:52;24.80;48.50
75161;DHT22;67232;50.096;8.716;2023-05-07T15:26:17;24.80;49.20
75161;DHT22;67232;50.096;8.716;2023-05-07T15:28:45;24.80;49.00
75161;DHT22;67232;50.096;8.716;2023-05-07T15:31:11;24.80;48.90
75161;DHT22;67232;50.096;8.716;2023-05-07T15:33:41;24.90;48.90
75161;DHT22;67232;50.096;8.716;2023-05-07T15:36:10;24.90;48.70
75161;DHT22;67232;50.096;8.716;2023-05-07T15:38:36;24.60;49.10
75161;DHT22;67232;50.096;8.716;2023-05-07T15:41:04;24.70;49.10
75161;DHT22;67232;50.096;8.716;2023-05-07T15:43:30;24.70;48.90
75161;DHT22;67232;50.096;8.716;2023-05-07T15:45:55;24.60;49.10
75161;DHT22;67232;50.096;8.716;2023-05-07T15:48:23;24.60;49.10
75161;DHT22;67232;50.096;8.716;2023-05-07T15:50:51;24.70;49.30